Cataratas International Airport
SBFI : rendu visible

Aérodrome :











RETROUVEZ-NOUS SUR...

 
LOGIN :

S'inscrire | Disclaimer

   EN    FR    IT 

 









Légende :    VFR   VFR Marginal   IFR   IFR Intensif   IFR Très Intensif
Visi : 
Plafond : 
>= 8 km
>= 3000ft
5 à 8 km
1000 à 3000 ft
1500m à 5 km
500 à 1000 ft
800 à 1500m
200 à 500 ft
< 800m
< 200 ft
Symboles :   Orages  Brouillard  Fortes neiges  Fortes précipitations  Vent > 20 kt






- Altitude de l'aérodrome : 786 ft
- Code IATA : IGU


SBFI - Cataratas International

DERNIER METAR :
  • 040900Z 12003KT CAVOK 12/11 Q1013

METARs EXPIRÉS :
  • 040800Z 15006KT CAVOK 14/13 Q1014
  • 040700Z 15005KT CAVOK 15/14 Q1014

TAF TAF SBFI
Valide du 04 à 06h jusqu'au 05 à 06h UTC


040300Z 0406/0506 12005KT CAVOK TN16/0409Z TX27/0419Z
BECMG 0412/0414 02005KT
BECMG 0415/0417 9999 FEW030
BECMG 0421/0423 13005KT FEW040
BECMG 0501/0503 CAVOK RMK PDG



MET'MAP, la Météo Aéronautique d'un coup d'oeil ! - Copyright ORBIFLY Décembre 2007 - Disclaimer

ORBIFLY MET'MAP TEAM :

Programmation & Développement : Alexandra Zaïnal
Sur une idée originale de : Baudouin d'Aumeries
Assistance à la programmation : Marc-Olivier Méhu
Soutien technique & logistique : Manuel Goepfert

Contact : metmap@orbifly.com




SOURCES & CREDITS :

   NOAA       Earth
Advisory